Time;durP1;ratioP1;P1;durP2;ratioP2;P2;SDS_P1;SDS_P2;PMS_P1;PMS_P2;Temp;Humidity;BMP_temperature;BMP_pressure;BME280_temperature;BME280_humidity;BME280_pressure;Samples;Min_cycle;Max_cycle;Signal;HPM_P1;HPM_P2
2023/04/06 00:00:17;;;;;;;7.50;4.72;;;-0.60;93.00;;;;;;2094837;28;20201;-59
2023/04/06 00:01:23;;;;;;;9.10;5.22;;;-0.70;92.90;;;;;;2093933;28;20275;-61
2023/04/06 00:02:28;;;;;;;7.15;5.00;;;-0.70;93.00;;;;;;2094732;28;20203;-61
2023/04/06 00:03:34;;;;;;;10.20;5.82;;;-0.60;93.20;;;;;;2094493;28;20176;-61
2023/04/06 00:04:40;;;;;;;10.00;5.53;;;-0.60;93.30;;;;;;2094483;28;20210;-61
2023/04/06 00:05:48;;;;;;;9.85;5.20;;;-0.60;93.30;;;;;;2094375;28;20179;-61
2023/04/06 00:06:54;;;;;;;7.57;5.47;;;-0.60;93.20;;;;;;2094703;28;20577;-60
2023/04/06 00:08:00;;;;;;;8.35;5.20;;;-0.60;93.00;;;;;;2094755;28;20192;-61
2023/04/06 00:09:04;;;;;;;10.70;5.68;;;-0.60;93.70;;;;;;2094489;28;20279;-61
2023/04/06 00:10:09;;;;;;;8.68;5.30;;;-0.60;93.10;;;;;;2094681;28;20187;-61
2023/04/06 00:11:16;;;;;;;7.88;5.68;;;-0.70;93.10;;;;;;2094377;28;20683;-61
2023/04/06 00:12:22;;;;;;;7.95;5.18;;;-0.80;93.40;;;;;;2094815;28;20186;-60
2023/04/06 00:13:28;;;;;;;7.82;5.43;;;-0.80;93.90;;;;;;2094531;28;20722;-61
2023/04/06 00:14:33;;;;;;;7.00;5.07;;;-0.80;94.20;;;;;;2094565;28;20207;-61
2023/04/06 00:15:39;;;;;;;10.10;5.68;;;-0.80;94.50;;;;;;2094588;28;20194;-61
2023/04/06 00:16:45;;;;;;;8.30;5.25;;;-0.80;93.90;;;;;;2094673;28;20682;-60
2023/04/06 00:17:51;;;;;;;7.38;5.03;;;-0.80;94.10;;;;;;2094473;28;20188;-61
2023/04/06 00:18:57;;;;;;;9.10;4.97;;;-0.80;94.20;;;;;;2094094;28;20236;-60
2023/04/06 00:20:04;;;;;;;9.73;4.93;;;-0.70;94.00;;;;;;2086746;28;20191;-62
2023/04/06 00:21:14;;;;;;;8.30;4.68;;;-0.70;94.00;;;;;;2094105;28;20619;-61
2023/04/06 00:22:20;;;;;;;11.23;5.35;;;-0.80;94.00;;;;;;2094489;28;20866;-60
2023/04/06 00:23:25;;;;;;;9.73;5.05;;;-0.80;94.30;;;;;;2094344;28;20687;-61
2023/04/06 00:24:31;;;;;;;8.90;4.93;;;-0.80;94.30;;;;;;2094451;28;20201;-60
2023/04/06 00:25:37;;;;;;;8.48;5.13;;;-0.90;94.20;;;;;;2094551;28;20206;-61
2023/04/06 00:26:42;;;;;;;8.38;5.10;;;-0.90;94.20;;;;;;2094514;28;20206;-61
2023/04/06 00:27:48;;;;;;;9.05;5.40;;;-0.90;94.10;;;;;;2094373;28;20194;-60
2023/04/06 00:28:54;;;;;;;8.80;5.28;;;-0.90;94.10;;;;;;2094532;28;20562;-60
2023/04/06 00:30:00;;;;;;;11.57;5.78;;;-0.90;94.10;;;;;;2094190;28;20194;-60
2023/04/06 00:31:04;;;;;;;8.48;5.60;;;-1.00;94.00;;;;;;2094300;28;20282;-59
2023/04/06 00:32:09;;;;;;;8.10;5.10;;;-1.00;94.10;;;;;;2093005;28;20270;-61
2023/04/06 00:33:15;;;;;;;6.70;4.95;;;-1.00;94.10;;;;;;2093935;28;20198;-61
2023/04/06 00:34:21;;;;;;;7.90;5.32;;;-1.00;94.20;;;;;;2094178;28;20269;-60
2023/04/06 00:35:27;;;;;;;9.30;5.15;;;-1.00;94.10;;;;;;2094450;28;20581;-61
2023/04/06 00:36:32;;;;;;;9.90;4.97;;;-1.00;94.00;;;;;;2095303;28;20184;-61
2023/04/06 00:37:38;;;;;;;9.07;5.50;;;-1.00;94.10;;;;;;2096275;28;20183;-61
2023/04/06 00:38:44;;;;;;;7.63;5.35;;;-1.00;94.20;;;;;;2095280;28;20191;-62
2023/04/06 00:39:51;;;;;;;7.88;5.40;;;-0.90;94.20;;;;;;2094657;28;20938;-60
2023/04/06 00:40:57;;;;;;;8.77;4.72;;;-0.90;94.10;;;;;;2094445;28;20185;-59
2023/04/06 00:42:14;;;;;;;8.18;5.03;;;-0.90;94.10;;;;;;2093309;28;20202;-61
2023/04/06 00:43:20;;;;;;;8.57;4.93;;;-1.00;94.00;;;;;;2093991;28;20187;-61
2023/04/06 00:44:27;;;;;;;8.32;4.97;;;-1.00;94.80;;;;;;2094211;28;20212;-59
2023/04/06 00:45:33;;;;;;;6.68;5.10;;;-1.00;94.20;;;;;;2094433;28;20181;-60
2023/04/06 00:46:39;;;;;;;9.25;5.85;;;-1.00;94.10;;;;;;2094279;28;20274;-61
2023/04/06 00:47:45;;;;;;;6.78;4.82;;;-1.00;94.10;;;;;;2094785;28;20188;-61
2023/04/06 00:48:51;;;;;;;8.38;5.05;;;-1.00;93.70;;;;;;2093150;28;20211;-58
2023/04/06 00:49:56;;;;;;;8.45;5.07;;;-1.00;93.50;;;;;;2094516;28;20190;-57
2023/04/06 00:51:02;;;;;;;8.50;4.97;;;-1.00;93.30;;;;;;2093932;28;20179;-60
2023/04/06 00:52:05;;;;;;;8.75;5.95;;;-1.00;93.40;;;;;;2093662;28;20225;-61
2023/04/06 00:53:10;;;;;;;9.10;5.28;;;-1.00;94.10;;;;;;2090172;28;20183;-61
2023/04/06 00:54:15;;;;;;;8.85;5.20;;;-1.00;93.80;;;;;;2094446;28;20242;-61
2023/04/06 00:55:21;;;;;;;6.90;4.88;;;-1.00;94.10;;;;;;2094131;28;20232;-61
2023/04/06 00:56:27;;;;;;;10.15;5.63;;;-1.00;94.20;;;;;;2094276;28;20649;-61
2023/04/06 00:57:33;;;;;;;7.72;4.97;;;-1.00;94.10;;;;;;2094388;28;20198;-61
2023/04/06 00:58:40;;;;;;;8.93;5.80;;;-1.10;94.00;;;;;;2094299;28;20194;-60
2023/04/06 00:59:46;;;;;;;7.65;5.00;;;-1.10;94.00;;;;;;2097534;28;20190;-61
2023/04/06 01:00:52;;;;;;;4.53;3.95;;;-1.10;94.10;;;;;;2094312;28;20197;-61
2023/04/06 01:01:58;;;;;;;10.45;5.75;;;-1.10;94.40;;;;;;2093559;28;20182;-61
2023/04/06 01:03:06;;;;;;;8.43;5.03;;;-1.10;94.40;;;;;;2094458;28;20201;-61
2023/04/06 01:04:10;;;;;;;7.75;5.00;;;-1.10;94.90;;;;;;2093977;28;20654;-61
2023/04/06 01:05:15;;;;;;;9.00;5.38;;;-1.10;94.20;;;;;;2094036;28;20205;-61
2023/04/06 01:06:21;;;;;;;7.90;5.10;;;-1.20;94.20;;;;;;2094240;28;20193;-61
2023/04/06 01:07:27;;;;;;;7.85;4.90;;;-1.30;94.20;;;;;;2094361;28;20309;-61
2023/04/06 01:08:33;;;;;;;7.80;5.30;;;-1.20;94.30;;;;;;2094204;28;20681;-61
2023/04/06 01:09:40;;;;;;;8.45;5.35;;;-1.20;94.30;;;;;;2093578;28;20251;-60
2023/04/06 01:10:46;;;;;;;9.80;4.95;;;-1.20;94.30;;;;;;2092778;28;20213;-61
2023/04/06 01:11:52;;;;;;;6.68;4.68;;;-1.20;94.20;;;;;;2093637;28;20194;-60
2023/04/06 01:12:58;;;;;;;9.75;5.20;;;-1.20;94.40;;;;;;2094354;28;20180;-59
2023/04/06 01:14:03;;;;;;;9.40;5.13;;;-1.30;94.30;;;;;;2094181;28;20190;-61
2023/04/06 01:15:06;;;;;;;7.18;4.78;;;-1.40;94.60;;;;;;2093539;28;20272;-61
2023/04/06 01:16:09;;;;;;;9.93;5.95;;;-1.40;94.90;;;;;;2085513;28;20208;-61
2023/04/06 01:17:15;;;;;;;7.10;4.45;;;-1.30;95.00;;;;;;2086157;28;20201;-61
2023/04/06 01:18:29;;;;;;;8.90;5.35;;;-1.30;95.00;;;;;;2093210;28;20194;-61
2023/04/06 01:19:36;;;;;;;9.07;5.32;;;-1.30;94.80;;;;;;2093484;28;20279;-61
2023/04/06 01:20:42;;;;;;;9.80;5.55;;;-1.30;95.00;;;;;;2092929;28;20189;-60
2023/04/06 01:21:50;;;;;;;10.57;5.25;;;-1.30;95.20;;;;;;2093663;28;20197;-59
2023/04/06 01:22:55;;;;;;;11.05;5.65;;;-1.30;95.30;;;;;;2094172;28;20190;-61
2023/04/06 01:24:01;;;;;;;13.43;5.03;;;-1.40;95.50;;;;;;2093956;28;20189;-60
2023/04/06 01:25:05;;;;;;;6.90;4.70;;;-1.40;96.10;;;;;;2094093;28;20260;-59
2023/04/06 01:26:09;;;;;;;8.27;5.50;;;-1.50;95.70;;;;;;2094014;28;20185;-61
2023/04/06 01:27:15;;;;;;;7.47;5.15;;;-1.40;95.80;;;;;;2094033;28;20178;-61
2023/04/06 01:28:21;;;;;;;7.15;4.65;;;-1.50;95.90;;;;;;2093876;28;20277;-61
2023/04/06 01:29:27;;;;;;;5.82;4.60;;;-1.50;95.90;;;;;;2094434;28;20190;-61
2023/04/06 01:30:32;;;;;;;8.57;5.35;;;-1.50;96.20;;;;;;2093981;28;20604;-61
2023/04/06 01:31:39;;;;;;;8.57;5.15;;;-1.50;96.40;;;;;;2090053;28;20194;-60
2023/04/06 01:32:45;;;;;;;7.60;4.88;;;-1.60;96.50;;;;;;2092330;28;20199;-62
2023/04/06 01:33:51;;;;;;;9.05;5.57;;;-1.60;96.60;;;;;;2096770;28;20190;-61
2023/04/06 01:34:57;;;;;;;7.22;4.88;;;-1.60;96.70;;;;;;2094876;28;20289;-60
2023/04/06 01:36:03;;;;;;;8.88;5.47;;;-1.60;96.80;;;;;;2094452;28;20241;-61
2023/04/06 01:37:05;;;;;;;8.82;5.20;;;-1.60;96.90;;;;;;2094204;28;20193;-60
2023/04/06 01:38:10;;;;;;;7.95;4.60;;;-1.60;97.00;;;;;;2091473;28;20197;-60
2023/04/06 01:39:15;;;;;;;10.00;4.93;;;-1.60;97.00;;;;;;2094420;28;20191;-61
2023/04/06 01:40:21;;;;;;;10.38;5.25;;;-1.60;97.00;;;;;;2091504;28;20270;-62
2023/04/06 01:41:27;;;;;;;6.75;4.93;;;-1.60;97.10;;;;;;2093577;28;20192;-61
2023/04/06 01:42:33;;;;;;;8.73;5.30;;;-1.60;97.00;;;;;;2094447;28;20217;-61
2023/04/06 01:43:39;;;;;;;6.90;4.30;;;-1.60;97.20;;;;;;2094294;28;20190;-61
2023/04/06 01:44:45;;;;;;;7.53;4.60;;;-1.60;97.30;;;;;;2094369;28;20293;-61
2023/04/06 01:45:51;;;;;;;7.65;5.07;;;-1.70;97.90;;;;;;2094398;28;20198;-60
2023/04/06 01:46:56;;;;;;;8.07;4.97;;;-1.80;97.40;;;;;;2094516;28;20187;-61
2023/04/06 01:48:02;;;;;;;7.95;5.35;;;-1.80;97.60;;;;;;2094580;28;20188;-61
2023/04/06 01:49:04;;;;;;;8.15;5.25;;;-1.80;97.60;;;;;;2094329;28;20215;-61
2023/04/06 01:50:10;;;;;;;8.27;4.68;;;-1.80;97.50;;;;;;2094430;28;20188;-62
2023/04/06 01:51:15;;;;;;;8.82;5.20;;;-1.80;97.40;;;;;;2096846;28;20189;-60
2023/04/06 01:52:21;;;;;;;9.07;5.80;;;-1.80;97.60;;;;;;2094482;28;20619;-60
2023/04/06 01:53:27;;;;;;;6.78;4.80;;;-1.70;97.70;;;;;;2093796;28;20184;-61
2023/04/06 01:54:33;;;;;;;6.93;4.82;;;-1.70;97.60;;;;;;2093695;28;20217;-61
2023/04/06 01:55:38;;;;;;;8.77;5.50;;;-1.80;97.50;;;;;;2094102;28;20200;-61
2023/04/06 01:56:44;;;;;;;9.27;5.43;;;-1.80;97.60;;;;;;2094185;28;20184;-60
2023/04/06 01:57:50;;;;;;;8.00;5.47;;;-1.80;97.50;;;;;;2093591;28;20184;-61
2023/04/06 01:58:56;;;;;;;8.30;4.78;;;-1.90;97.40;;;;;;2093890;28;20193;-61
2023/04/06 02:00:02;;;;;;;8.02;4.90;;;-1.90;97.60;;;;;;2093661;28;20216;-62
2023/04/06 02:01:04;;;;;;;6.90;5.03;;;-1.70;97.60;;;;;;2093530;28;20604;-61
2023/04/06 02:02:09;;;;;;;8.45;4.72;;;-1.80;97.60;;;;;;2093047;28;20217;-61
2023/04/06 02:03:15;;;;;;;8.52;5.50;;;-1.80;97.60;;;;;;2093853;28;20191;-61
2023/04/06 02:04:21;;;;;;;8.27;4.55;;;-1.80;97.70;;;;;;2093509;28;20269;-60
2023/04/06 02:05:30;;;;;;;6.95;5.10;;;-1.80;97.60;;;;;;2093601;28;20248;-59
2023/04/06 02:06:36;;;;;;;8.63;5.13;;;-1.80;97.60;;;;;;2093618;28;20193;-61
2023/04/06 02:07:41;;;;;;;7.40;4.85;;;-1.80;97.50;;;;;;2093736;28;20188;-61
2023/04/06 02:08:47;;;;;;;9.43;5.45;;;-1.80;97.60;;;;;;2093620;28;20683;-61
2023/04/06 02:09:55;;;;;;;9.38;4.88;;;-1.80;97.70;;;;;;2093525;28;20272;-61
2023/04/06 02:11:01;;;;;;;8.80;4.57;;;-1.80;97.80;;;;;;2093721;28;20181;-61
2023/04/06 02:12:05;;;;;;;7.15;4.80;;;-1.80;97.70;;;;;;2092799;28;20246;-61
2023/04/06 02:13:09;;;;;;;9.70;6.00;;;-1.90;97.70;;;;;;2093793;28;20732;-60
2023/04/06 02:14:15;;;;;;;8.45;5.18;;;-1.90;97.70;;;;;;2093523;28;20206;-61
2023/04/06 02:15:21;;;;;;;9.07;5.43;;;-2.00;97.90;;;;;;2093719;28;20554;-61
2023/04/06 02:16:26;;;;;;;7.60;4.50;;;-2.00;97.90;;;;;;2093858;28;20247;-61
2023/04/06 02:17:32;;;;;;;8.30;4.90;;;-1.90;97.90;;;;;;2093862;28;20188;-60
2023/04/06 02:18:38;;;;;;;8.68;5.68;;;-1.90;97.80;;;;;;2093547;28;20192;-61
2023/04/06 02:19:43;;;;;;;9.55;5.25;;;-2.00;98.00;;;;;;2093645;28;20596;-60
2023/04/06 02:20:49;;;;;;;7.90;5.63;;;-2.10;97.90;;;;;;2093283;28;20206;-64
2023/04/06 02:21:55;;;;;;;11.10;5.65;;;-2.10;98.20;;;;;;2092809;28;20195;-61
2023/04/06 02:23:01;;;;;;;12.98;6.03;;;-2.10;98.40;;;;;;2093180;28;20195;-61
2023/04/06 02:24:05;;;;;;;8.60;5.40;;;-2.20;98.60;;;;;;2089156;28;20198;-60
2023/04/06 02:25:10;;;;;;;8.55;4.95;;;-2.30;98.70;;;;;;2096873;28;20194;-61
2023/04/06 02:26:16;;;;;;;8.52;4.97;;;-2.30;99.00;;;;;;2093857;28;20217;-61
2023/04/06 02:27:21;;;;;;;7.85;5.32;;;-2.20;99.10;;;;;;2093601;28;20219;-62
2023/04/06 02:28:27;;;;;;;8.80;5.25;;;-2.20;98.80;;;;;;2093330;28;20194;-61
2023/04/06 02:29:33;;;;;;;7.78;4.90;;;-2.20;98.70;;;;;;2093543;28;20208;-61
2023/04/06 02:30:39;;;;;;;8.45;4.93;;;-2.20;98.60;;;;;;2093388;28;20603;-60
2023/04/06 02:31:44;;;;;;;8.20;5.00;;;-2.30;98.50;;;;;;2093212;28;20178;-61
2023/04/06 02:32:50;;;;;;;8.77;5.03;;;-2.20;98.60;;;;;;2093450;28;20190;-61
2023/04/06 02:33:56;;;;;;;8.82;5.00;;;-2.20;98.60;;;;;;2093675;28;20179;-62
2023/04/06 02:35:02;;;;;;;8.48;5.47;;;-2.20;98.40;;;;;;2097915;28;20210;-61
2023/04/06 02:36:05;;;;;;;9.00;5.32;;;-2.20;98.30;;;;;;2098197;28;20182;-61
2023/04/06 02:37:09;;;;;;;7.22;5.00;;;-2.20;98.30;;;;;;2094539;28;20269;-61
2023/04/06 02:38:15;;;;;;;8.00;5.38;;;-2.10;98.20;;;;;;2090275;28;20321;-60
2023/04/06 02:39:21;;;;;;;8.38;5.22;;;-1.10;98.30;;;;;;2093329;28;20213;-60
2023/04/06 02:40:27;;;;;;;7.18;4.95;;;-2.10;98.10;;;;;;2095281;28;20240;-61
2023/04/06 02:41:32;;;;;;;8.00;5.13;;;-2.10;98.10;;;;;;2092733;28;20181;-61
2023/04/06 02:42:38;;;;;;;6.35;5.15;;;-2.00;98.10;;;;;;2091495;28;20293;-62
2023/04/06 02:43:44;;;;;;;8.50;5.20;;;-2.10;98.10;;;;;;2090615;28;20234;-61
2023/04/06 02:44:49;;;;;;;7.55;4.80;;;-2.10;98.00;;;;;;2097581;28;20197;-61
2023/04/06 02:45:55;;;;;;;11.23;5.20;;;-2.20;98.00;;;;;;2093635;28;20193;-60
2023/04/06 02:47:01;;;;;;;8.88;5.18;;;-2.20;98.10;;;;;;2093582;28;20246;-61
2023/04/06 02:48:05;;;;;;;12.18;5.35;;;-2.20;98.30;;;;;;2093719;28;20218;-61
2023/04/06 02:49:09;;;;;;;9.35;4.95;;;-2.20;98.30;;;;;;2093494;28;20221;-61
2023/04/06 02:50:15;;;;;;;7.85;5.00;;;-2.20;98.40;;;;;;2093877;28;20190;-61
2023/04/06 02:51:21;;;;;;;9.35;6.00;;;-2.20;98.70;;;;;;2096886;28;20824;-61
2023/04/06 02:52:27;;;;;;;8.40;5.10;;;-2.30;98.70;;;;;;2094076;28;20186;-60
2023/04/06 02:53:32;;;;;;;7.97;4.93;;;-2.30;98.70;;;;;;2093539;28;20549;-60
2023/04/06 02:54:38;;;;;;;9.80;5.88;;;-2.30;98.80;;;;;;2093736;28;20218;-60
2023/04/06 02:55:44;;;;;;;10.00;5.70;;;-2.30;98.90;;;;;;2092721;28;20529;-58
2023/04/06 02:56:50;;;;;;;8.77;5.00;;;-2.30;99.00;;;;;;2085448;28;20610;-59
2023/04/06 02:57:55;;;;;;;9.15;5.82;;;-2.30;99.00;;;;;;2092843;28;20539;-60
2023/04/06 02:59:01;;;;;;;8.10;5.63;;;-2.30;99.00;;;;;;2093714;28;20189;-59
2023/04/06 03:00:06;;;;;;;11.63;5.28;;;-2.40;98.90;;;;;;2093447;28;20274;-58
2023/04/06 03:01:09;;;;;;;9.43;5.78;;;-2.30;98.80;;;;;;2093482;28;20196;-59
2023/04/06 03:02:15;;;;;;;10.05;5.03;;;-2.20;98.80;;;;;;2093057;28;20194;-61
2023/04/06 03:03:21;;;;;;;9.40;5.50;;;-2.30;98.60;;;;;;2093657;28;20198;-59
2023/04/06 03:04:26;;;;;;;7.45;5.10;;;-2.30;98.60;;;;;;2093476;28;20218;-60
2023/04/06 03:05:33;;;;;;;7.10;4.47;;;-2.30;98.60;;;;;;2093501;28;20200;-60
2023/04/06 03:06:38;;;;;;;8.20;5.05;;;-2.40;98.50;;;;;;2093370;28;20193;-60
2023/04/06 03:07:44;;;;;;;8.65;5.80;;;-2.40;98.60;;;;;;2093359;28;20600;-57
2023/04/06 03:08:50;;;;;;;7.25;5.18;;;-2.40;98.70;;;;;;2093218;28;20613;-60
2023/04/06 03:09:56;;;;;;;8.23;5.53;;;-2.40;98.70;;;;;;2093122;28;20244;-59
2023/04/06 03:11:01;;;;;;;9.23;5.60;;;-2.30;98.60;;;;;;2093365;28;20206;-60
2023/04/06 03:12:05;;;;;;;14.77;5.95;;;-2.40;98.50;;;;;;2091904;28;20687;-59
2023/04/06 03:13:09;;;;;;;9.57;5.63;;;-2.30;98.40;;;;;;2093297;28;20190;-60
2023/04/06 03:14:17;;;;;;;9.85;5.97;;;-2.40;98.20;;;;;;2093078;28;20201;-60
2023/04/06 03:15:23;;;;;;;8.45;5.47;;;-2.40;98.40;;;;;;2093472;28;20685;-60
2023/04/06 03:16:29;;;;;;;7.70;5.15;;;-2.50;98.50;;;;;;2093251;28;20658;-61
2023/04/06 03:17:35;;;;;;;7.55;5.20;;;-2.50;98.60;;;;;;2093395;28;20192;-61
2023/04/06 03:18:40;;;;;;;9.88;5.35;;;-2.40;98.40;;;;;;2095743;28;20193;-60
2023/04/06 03:19:46;;;;;;;8.73;4.95;;;-2.40;98.30;;;;;;2093486;28;20232;-61
2023/04/06 03:20:55;;;;;;;9.30;5.32;;;-2.40;98.20;;;;;;2093064;28;20305;-59
2023/04/06 03:22:00;;;;;;;7.18;4.68;;;-2.30;98.30;;;;;;2092766;28;20240;-59
2023/04/06 03:23:04;;;;;;;7.18;5.05;;;-2.30;98.30;;;;;;2093292;28;20186;-60
2023/04/06 03:24:09;;;;;;;9.93;5.20;;;-2.40;98.90;;;;;;2093185;28;20279;-59
2023/04/06 03:25:15;;;;;;;8.18;4.85;;;-2.40;98.40;;;;;;2093345;28;20915;-60
2023/04/06 03:26:22;;;;;;;7.65;5.00;;;-2.40;98.50;;;;;;2092538;28;20194;-59
2023/04/06 03:27:27;;;;;;;8.70;5.18;;;-2.50;98.40;;;;;;2092781;28;20186;-60
2023/04/06 03:28:33;;;;;;;9.63;5.20;;;-2.50;98.40;;;;;;2093034;28;20880;-58
2023/04/06 03:29:39;;;;;;;9.45;5.30;;;-2.50;98.50;;;;;;2093568;28;20274;-59
2023/04/06 03:30:45;;;;;;;9.75;6.00;;;-2.50;98.50;;;;;;2092385;28;20194;-58
2023/04/06 03:31:51;;;;;;;9.75;5.15;;;-2.50;98.60;;;;;;2092215;28;20678;-60
2023/04/06 03:32:57;;;;;;;10.25;5.70;;;-2.50;98.60;;;;;;2093233;28;20183;-60
2023/04/06 03:34:03;;;;;;;8.30;5.05;;;-2.50;98.40;;;;;;2094284;28;20194;-58
2023/04/06 03:35:05;;;;;;;8.60;5.00;;;-2.60;98.50;;;;;;2094595;28;20287;-59
2023/04/06 03:36:09;;;;;;;8.75;5.60;;;-2.40;98.70;;;;;;2094723;28;20582;-60
2023/04/06 03:37:15;;;;;;;7.72;5.38;;;-2.50;98.40;;;;;;2094128;28;20566;-60
2023/04/06 03:38:21;;;;;;;11.43;5.80;;;-2.50;98.30;;;;;;2094313;28;20268;-60
2023/04/06 03:39:27;;;;;;;9.43;5.97;;;-2.50;98.50;;;;;;2094919;28;20185;-59
2023/04/06 03:40:32;;;;;;;10.07;6.05;;;-2.60;98.40;;;;;;2094848;28;20201;-59
2023/04/06 03:41:38;;;;;;;8.85;5.72;;;-2.60;98.70;;;;;;2093944;28;20190;-60
2023/04/06 03:42:44;;;;;;;8.32;4.95;;;-2.60;98.70;;;;;;2094778;28;20675;-60
2023/04/06 03:43:50;;;;;;;7.95;5.25;;;-2.60;98.70;;;;;;2094156;28;20191;-59
2023/04/06 03:44:56;;;;;;;8.20;5.10;;;-2.60;99.30;;;;;;2094717;28;20205;-60
2023/04/06 03:46:01;;;;;;;9.80;5.85;;;-2.60;98.60;;;;;;2094770;28;20185;-60
2023/04/06 03:47:04;;;;;;;9.65;5.53;;;-2.60;98.50;;;;;;2094737;28;20190;-59
2023/04/06 03:48:09;;;;;;;8.10;5.22;;;-2.60;98.40;;;;;;2094126;28;20191;-60
2023/04/06 03:49:15;;;;;;;8.52;5.63;;;-2.60;98.50;;;;;;2094122;28;20243;-60
2023/04/06 03:50:21;;;;;;;9.55;5.70;;;-2.60;98.60;;;;;;2095273;28;20779;-56
2023/04/06 03:51:27;;;;;;;8.45;5.28;;;-2.60;98.70;;;;;;2093569;28;20190;-57
2023/04/06 03:52:34;;;;;;;7.63;5.68;;;-2.60;98.60;;;;;;2095885;28;20652;-60
2023/04/06 03:53:40;;;;;;;9.88;5.20;;;-2.60;98.60;;;;;;2094648;28;20194;-60
2023/04/06 03:54:45;;;;;;;8.27;5.60;;;-2.60;98.50;;;;;;2094807;28;20669;-60
2023/04/06 03:55:51;;;;;;;8.65;5.47;;;-2.50;98.70;;;;;;2094642;28;20190;-60
2023/04/06 03:56:57;;;;;;;8.88;6.03;;;-2.60;98.70;;;;;;2094841;28;20193;-60
2023/04/06 03:58:02;;;;;;;6.97;4.70;;;-2.60;98.60;;;;;;2094509;28;20414;-59
2023/04/06 03:59:05;;;;;;;9.73;5.18;;;-2.60;98.50;;;;;;2094808;28;20201;-58
2023/04/06 04:00:10;;;;;;;7.55;5.30;;;-2.70;98.80;;;;;;2094865;28;20332;-60
2023/04/06 04:01:18;;;;;;;9.73;5.80;;;-2.80;98.80;;;;;;2093812;28;20189;-63
2023/04/06 04:02:23;;;;;;;8.70;5.50;;;-3.90;98.60;;;;;;2094141;28;20194;-60
2023/04/06 04:03:29;;;;;;;9.07;5.43;;;-2.80;99.00;;;;;;2094800;28;20728;-58
2023/04/06 04:04:35;;;;;;;9.50;5.57;;;-2.80;99.00;;;;;;2094311;28;20290;-58
2023/04/06 04:05:41;;;;;;;8.85;5.35;;;-2.70;99.10;;;;;;2094405;28;20880;-60
2023/04/06 04:06:46;;;;;;;8.45;4.82;;;-2.60;98.90;;;;;;2094092;28;20201;-60
2023/04/06 04:07:52;;;;;;;8.02;5.50;;;-2.60;98.90;;;;;;2094403;28;20194;-60
2023/04/06 04:08:58;;;;;;;7.05;5.10;;;-2.70;98.80;;;;;;2094153;28;20214;-59
2023/04/06 04:10:04;;;;;;;10.48;5.88;;;-2.60;98.80;;;;;;2094281;28;20672;-58
2023/04/06 04:11:09;;;;;;;8.85;6.10;;;-2.60;98.70;;;;;;2094251;28;20193;-60
2023/04/06 04:12:16;;;;;;;9.63;5.70;;;-2.70;98.70;;;;;;2093633;28;20193;-58
2023/04/06 04:13:22;;;;;;;6.78;4.53;;;-2.80;98.90;;;;;;2094262;28;20217;-59
2023/04/06 04:14:27;;;;;;;9.50;5.18;;;-2.80;98.90;;;;;;2094021;28;20210;-60
2023/04/06 04:15:33;;;;;;;8.13;5.35;;;-2.70;98.90;;;;;;2093758;28;20614;-60
2023/04/06 04:16:39;;;;;;;9.18;5.60;;;-2.70;98.80;;;;;;2093594;28;20194;-59
2023/04/06 04:17:46;;;;;;;8.07;5.30;;;-2.80;98.80;;;;;;2094424;28;20186;-60
2023/04/06 04:18:52;;;;;;;9.23;5.18;;;-2.70;99.10;;;;;;2094287;28;20195;-60
2023/04/06 04:19:58;;;;;;;8.90;5.30;;;-2.80;99.00;;;;;;2094337;28;20189;-61
2023/04/06 04:21:04;;;;;;;9.35;5.68;;;-2.80;99.10;;;;;;2094108;28;20251;-60
2023/04/06 04:22:09;;;;;;;7.93;4.68;;;-2.80;99.20;;;;;;2093735;28;20200;-61
2023/04/06 04:23:15;;;;;;;7.65;5.20;;;-2.80;99.10;;;;;;2094145;28;20629;-60
2023/04/06 04:24:21;;;;;;;7.78;4.70;;;-2.90;98.90;;;;;;2093099;28;20190;-61
2023/04/06 04:25:26;;;;;;;7.78;5.05;;;-2.90;99.00;;;;;;2097110;28;20188;-61
2023/04/06 04:26:32;;;;;;;8.75;4.93;;;-2.80;99.30;;;;;;2094898;28;20186;-61
2023/04/06 04:27:38;;;;;;;8.43;5.15;;;-2.70;99.50;;;;;;2098183;28;20191;-61
2023/04/06 04:28:44;;;;;;;7.57;5.07;;;-2.70;99.50;;;;;;2098231;28;20233;-60
2023/04/06 04:29:49;;;;;;;8.98;5.78;;;-2.70;99.40;;;;;;2094195;28;20190;-60
2023/04/06 04:30:55;;;;;;;9.45;5.10;;;-2.80;99.30;;;;;;2094011;28;20585;-60
2023/04/06 04:32:01;;;;;;;7.40;4.47;;;-2.70;99.20;;;;;;2093793;28;20197;-60
2023/04/06 04:33:04;;;;;;;8.73;6.05;;;-2.80;99.00;;;;;;2097118;28;20181;-60
2023/04/06 04:34:09;;;;;;;8.45;5.07;;;-2.00;99.20;;;;;;2098647;28;20796;-59
2023/04/06 04:35:15;;;;;;;8.85;5.68;;;-2.80;99.00;;;;;;2097157;28;20207;-61
2023/04/06 04:36:21;;;;;;;7.78;5.18;;;-2.80;99.60;;;;;;2095049;28;20185;-60
2023/04/06 04:37:27;;;;;;;9.45;5.13;;;-2.80;99.10;;;;;;2094338;28;20195;-60
2023/04/06 04:38:32;;;;;;;6.78;4.50;;;-2.80;99.10;;;;;;2094716;28;20209;-61
2023/04/06 04:39:38;;;;;;;9.02;5.35;;;-2.80;99.10;;;;;;2092273;28;20187;-60
2023/04/06 04:40:44;;;;;;;8.30;5.15;;;-2.90;99.20;;;;;;2094434;28;20634;-60
2023/04/06 04:41:50;;;;;;;7.28;4.72;;;-3.00;99.20;;;;;;2092192;28;20205;-61
2023/04/06 04:42:55;;;;;;;8.73;5.03;;;-3.00;99.50;;;;;;2097920;28;20189;-59
2023/04/06 04:44:01;;;;;;;10.52;4.85;;;-3.00;99.70;;;;;;2094259;28;20198;-59
2023/04/06 04:45:05;;;;;;;9.25;5.78;;;-2.90;99.70;;;;;;2093781;28;20258;-61
2023/04/06 04:46:10;;;;;;;7.53;4.63;;;-2.90;99.50;;;;;;2093085;28;20705;-61
2023/04/06 04:47:15;;;;;;;6.22;4.55;;;-2.80;99.40;;;;;;2093944;28;20196;-60
2023/04/06 04:48:21;;;;;;;10.57;5.43;;;-2.70;99.30;;;;;;2094057;28;20184;-62
2023/04/06 04:49:27;;;;;;;8.27;4.68;;;-2.70;99.10;;;;;;2094392;28;20181;-59
2023/04/06 04:50:32;;;;;;;8.00;5.25;;;-2.80;99.10;;;;;;2094069;28;20242;-62
2023/04/06 04:51:38;;;;;;;11.43;5.72;;;-2.80;99.10;;;;;;2093578;28;20186;-61
2023/04/06 04:52:44;;;;;;;8.10;4.82;;;-2.80;99.90;;;;;;2094361;28;20558;-61
2023/04/06 04:53:50;;;;;;;6.57;4.45;;;-2.80;99.40;;;;;;2094056;28;20221;-61
2023/04/06 04:54:55;;;;;;;9.48;4.78;;;-2.80;99.70;;;;;;2094596;28;20213;-60
2023/04/06 04:56:01;;;;;;;6.35;4.63;;;-2.80;99.90;;;;;;2094134;28;20273;-60
2023/04/06 04:57:04;;;;;;;7.45;4.63;;;-2.80;99.90;;;;;;2093888;28;20233;-61
2023/04/06 04:58:14;;;;;;;8.65;4.65;;;-2.80;99.90;;;;;;2096879;28;20229;-60
2023/04/06 04:59:19;;;;;;;9.93;5.43;;;-2.80;99.90;;;;;;2094233;28;20214;-59
2023/04/06 05:00:25;;;;;;;9.27;5.07;;;-2.90;99.90;;;;;;2093639;28;20190;-58
2023/04/06 05:01:31;;;;;;;8.65;4.82;;;-2.80;99.90;;;;;;2093173;28;20192;-59
2023/04/06 05:02:37;;;;;;;8.38;4.15;;;-2.80;99.90;;;;;;2093806;28;20603;-60
2023/04/06 05:03:42;;;;;;;6.90;4.63;;;-2.80;99.90;;;;;;2093915;28;20197;-59
2023/04/06 05:04:48;;;;;;;7.90;4.57;;;-2.70;99.90;;;;;;2093581;28;20261;-60
2023/04/06 05:05:54;;;;;;;8.13;4.50;;;-2.70;99.80;;;;;;2093331;28;20276;-61
2023/04/06 05:07:08;;;;;;;7.03;4.18;;;-2.70;99.80;;;;;;2093177;28;20190;-59
2023/04/06 05:08:10;;;;;;;8.35;4.18;;;-2.70;99.80;;;;;;2093856;28;20196;-58
2023/04/06 05:09:17;;;;;;;5.43;4.07;;;-2.60;99.90;;;;;;2093737;28;20701;-59
2023/04/06 05:10:23;;;;;;;7.22;4.22;;;-2.60;99.80;;;;;;2093829;28;20707;-60
2023/04/06 05:11:29;;;;;;;7.68;4.60;;;-2.60;99.80;;;;;;2093093;28;20319;-59
2023/04/06 05:12:35;;;;;;;6.47;4.35;;;-2.60;99.70;;;;;;2093868;28;20185;-59
2023/04/06 05:13:40;;;;;;;6.28;4.10;;;-2.60;99.60;;;;;;2093501;28;20187;-59
2023/04/06 05:14:46;;;;;;;7.03;4.95;;;-2.60;99.60;;;;;;2093283;28;20619;-60
2023/04/06 05:15:52;;;;;;;8.43;4.20;;;-2.60;99.50;;;;;;2093768;28;20205;-59
2023/04/06 05:16:58;;;;;;;6.70;3.88;;;-2.50;99.40;;;;;;2093657;28;20655;-60
2023/04/06 05:18:05;;;;;;;8.02;4.25;;;-2.50;99.20;;;;;;2093846;28;20660;-58
2023/04/06 05:19:11;;;;;;;7.18;4.20;;;-2.50;99.00;;;;;;2093612;28;20194;-58
2023/04/06 05:20:17;;;;;;;6.95;3.88;;;-2.40;99.20;;;;;;2093761;28;20190;-59
2023/04/06 05:21:22;;;;;;;7.20;4.22;;;-2.40;99.30;;;;;;2092940;28;20182;-58
2023/04/06 05:22:28;;;;;;;8.25;4.40;;;-2.50;99.30;;;;;;2093771;28;20200;-60
2023/04/06 05:23:34;;;;;;;7.72;4.55;;;-2.60;99.40;;;;;;2093569;28;20185;-59
2023/04/06 05:24:40;;;;;;;6.38;3.92;;;-2.50;99.50;;;;;;2093824;28;20233;-60
2023/04/06 05:25:46;;;;;;;6.82;4.47;;;-2.40;99.40;;;;;;2093508;28;20747;-60
2023/04/06 05:26:51;;;;;;;5.72;3.72;;;-2.50;99.30;;;;;;2093150;28;20196;-60
2023/04/06 05:27:57;;;;;;;6.50;4.35;;;-2.40;99.10;;;;;;2093052;28;20210;-60
2023/04/06 05:29:03;;;;;;;8.32;4.10;;;-2.40;99.60;;;;;;2093727;28;20206;-60
2023/04/06 05:30:06;;;;;;;7.53;4.03;;;-2.40;99.10;;;;;;2093441;28;20887;-58
2023/04/06 05:31:09;;;;;;;5.80;4.40;;;-2.30;99.20;;;;;;2092925;28;20182;-60
2023/04/06 05:32:15;;;;;;;6.68;4.18;;;-2.30;99.10;;;;;;2092748;28;20191;-60
2023/04/06 05:33:21;;;;;;;7.18;4.10;;;-2.30;99.10;;;;;;2093814;28;20627;-60
2023/04/06 05:34:27;;;;;;;6.88;4.32;;;-2.30;99.10;;;;;;2093723;28;20235;-60
2023/04/06 05:35:32;;;;;;;5.47;4.18;;;-2.30;99.00;;;;;;2093526;28;20194;-60
2023/04/06 05:36:40;;;;;;;7.55;3.78;;;-2.30;98.90;;;;;;2093645;28;20186;-60
2023/04/06 05:37:46;;;;;;;5.43;3.90;;;-2.20;98.90;;;;;;2093403;28;20216;-58
2023/04/06 05:38:52;;;;;;;7.28;4.30;;;-2.20;98.70;;;;;;2093523;28;20191;-58
2023/04/06 05:39:58;;;;;;;7.22;4.05;;;-2.20;98.70;;;;;;2093383;28;20186;-60
2023/04/06 05:41:04;;;;;;;6.85;3.88;;;-2.10;98.50;;;;;;2093496;28;20201;-59